createdAt,value
2022-12-16T00:01:40.283Z,5.30
2022-12-16T00:04:07.934Z,6.00
2022-12-16T00:06:36.205Z,5.70
2022-12-16T00:09:04.078Z,5.40
2022-12-16T00:11:32.421Z,5.10
2022-12-16T00:14:00.801Z,5.40
2022-12-16T00:16:29.011Z,5.20
2022-12-16T00:18:57.426Z,5.10
2022-12-16T00:21:29.379Z,5.20
2022-12-16T00:23:57.505Z,5.10
2022-12-16T00:26:25.558Z,5.10
2022-12-16T00:28:53.131Z,5.10
2022-12-16T00:31:23.572Z,5.00
2022-12-16T00:33:52.956Z,5.30
2022-12-16T00:36:20.545Z,5.30
2022-12-16T00:38:48.088Z,5.30
2022-12-16T00:41:15.673Z,5.40
2022-12-16T00:43:43.431Z,5.30
2022-12-16T00:46:11.138Z,5.10
2022-12-16T00:48:38.786Z,4.90
2022-12-16T00:51:06.577Z,5.10
2022-12-16T00:53:35.736Z,5.00
2022-12-16T00:56:14.481Z,5.10
2022-12-16T00:58:42.477Z,5.10
2022-12-16T01:01:10.492Z,5.20
2022-12-16T01:03:39.203Z,4.90
2022-12-16T01:06:10.274Z,5.20
2022-12-16T01:08:38.456Z,5.00
2022-12-16T01:11:06.140Z,4.80
2022-12-16T01:13:34.108Z,5.10
2022-12-16T01:16:02.705Z,5.30
2022-12-16T01:18:30.436Z,5.00
2022-12-16T01:21:06.771Z,5.30
2022-12-16T01:23:35.361Z,5.30
2022-12-16T01:26:03.445Z,5.10
2022-12-16T01:28:31.052Z,5.10
2022-12-16T01:31:03.523Z,5.20
2022-12-16T01:33:33.341Z,5.00
2022-12-16T01:36:03.617Z,5.00
2022-12-16T01:38:31.998Z,4.80
2022-12-16T01:41:00.279Z,4.30
2022-12-16T01:43:32.076Z,4.80
2022-12-16T01:46:05.377Z,5.00
2022-12-16T01:48:39.540Z,4.90
2022-12-16T01:51:18.500Z,4.90
2022-12-16T01:53:48.482Z,5.00
2022-12-16T01:56:20.619Z,5.20
2022-12-16T01:58:48.416Z,5.20
2022-12-16T02:01:16.636Z,5.30
2022-12-16T02:03:44.822Z,5.30
2022-12-16T02:06:12.416Z,4.90
2022-12-16T02:08:40.028Z,4.90
2022-12-16T02:11:27.921Z,4.90
2022-12-16T02:14:09.819Z,4.90
2022-12-16T02:16:40.981Z,5.00
2022-12-16T02:19:18.005Z,4.70
2022-12-16T02:22:05.762Z,4.80
2022-12-16T02:24:52.434Z,4.90
2022-12-16T02:27:40.739Z,4.70
2022-12-16T02:30:19.487Z,5.20
2022-12-16T02:33:03.095Z,5.10
2022-12-16T02:36:02.197Z,4.70
2022-12-16T02:38:32.400Z,5.10
2022-12-16T02:41:42.307Z,5.60
2022-12-16T02:44:11.797Z,5.10
2022-12-16T02:46:42.747Z,5.00
2022-12-16T02:49:13.140Z,5.30
2022-12-16T02:51:41.482Z,5.00
2022-12-16T02:54:10.857Z,5.10
2022-12-16T02:56:54.347Z,5.00
2022-12-16T02:59:43.920Z,5.20
2022-12-16T03:02:17.392Z,4.80
2022-12-16T03:04:54.950Z,4.50
2022-12-16T03:07:26.398Z,5.00
2022-12-16T03:09:56.512Z,5.00
2022-12-16T03:12:24.797Z,4.90
2022-12-16T03:14:54.929Z,4.90
2022-12-16T03:17:25.367Z,4.90
2022-12-16T03:20:15.449Z,4.90
2022-12-16T03:22:46.052Z,4.90
2022-12-16T03:25:14.830Z,5.40
2022-12-16T03:27:51.798Z,5.40
2022-12-16T03:30:36.095Z,5.30
2022-12-16T03:33:26.318Z,5.20
2022-12-16T03:35:59.374Z,5.20
2022-12-16T03:38:28.158Z,5.20
2022-12-16T03:40:58.173Z,5.00
2022-12-16T03:43:26.049Z,5.10
2022-12-16T03:45:58.041Z,5.20
2022-12-16T03:48:26.056Z,5.00
2022-12-16T03:50:53.658Z,5.10
2022-12-16T03:53:26.242Z,5.20
2022-12-16T03:55:54.591Z,5.30
2022-12-16T03:58:22.395Z,5.40
2022-12-16T04:00:50.664Z,5.00
2022-12-16T04:03:18.390Z,5.20
2022-12-16T04:05:46.288Z,5.00
2022-12-16T04:08:13.868Z,5.20
2022-12-16T04:10:57.478Z,5.30
2022-12-16T04:13:41.025Z,5.90
2022-12-16T04:16:31.509Z,5.50
2022-12-16T04:19:15.269Z,5.90
2022-12-16T04:21:58.993Z,6.30
2022-12-16T04:24:29.659Z,6.40
2022-12-16T04:27:15.674Z,5.80
2022-12-16T04:30:00.197Z,5.80
2022-12-16T04:35:31.682Z,5.60
2022-12-16T04:38:15.215Z,5.90
2022-12-16T04:40:58.744Z,5.80
2022-12-16T04:43:42.304Z,6.10
2022-12-16T04:46:26.167Z,5.80
2022-12-16T04:49:09.881Z,5.50
2022-12-16T04:51:52.383Z,5.60
2022-12-16T04:54:36.040Z,6.00
2022-12-16T04:57:19.645Z,5.90
2022-12-16T05:00:03.185Z,5.80
2022-12-16T05:02:47.111Z,5.50
2022-12-16T05:05:30.877Z,5.50
2022-12-16T05:08:13.401Z,5.20
2022-12-16T05:10:56.904Z,5.60
2022-12-16T05:13:40.530Z,5.40
2022-12-16T05:16:24.213Z,5.40
2022-12-16T05:19:07.938Z,5.70
2022-12-16T05:21:51.663Z,5.70
2022-12-16T05:24:35.416Z,5.30
2022-12-16T05:27:18.959Z,5.60
2022-12-16T05:30:02.506Z,5.20
2022-12-16T05:32:46.151Z,5.70
2022-12-16T05:35:28.762Z,5.50
2022-12-16T05:38:13.385Z,5.20
2022-12-16T05:40:56.893Z,5.80
2022-12-16T05:43:39.434Z,5.80
2022-12-16T05:46:23.137Z,6.30
2022-12-16T05:49:06.822Z,5.90
2022-12-16T05:51:49.435Z,5.60
2022-12-16T05:54:32.989Z,5.50
2022-12-16T05:57:15.504Z,5.60
2022-12-16T05:59:59.141Z,5.50
2022-12-16T06:02:42.980Z,5.50
2022-12-16T06:05:26.812Z,5.30
2022-12-16T06:08:10.429Z,5.60
2022-12-16T06:10:54.384Z,5.20
2022-12-16T06:13:37.932Z,5.30
2022-12-16T06:16:21.887Z,5.20
2022-12-16T06:19:05.502Z,5.10
2022-12-16T06:21:49.051Z,5.60
2022-12-16T06:24:32.767Z,5.60
2022-12-16T06:27:16.380Z,5.50
2022-12-16T06:29:59.961Z,5.80
2022-12-16T06:32:43.640Z,5.80
2022-12-16T06:35:27.221Z,5.50
2022-12-16T06:38:10.769Z,5.20
2022-12-16T06:40:55.093Z,5.70
2022-12-16T06:43:38.860Z,5.30
2022-12-16T06:46:22.531Z,5.40
2022-12-16T06:49:06.238Z,5.20
2022-12-16T06:51:49.883Z,5.30
2022-12-16T06:54:33.653Z,5.50
2022-12-16T06:57:17.260Z,5.40
2022-12-16T07:00:01.392Z,5.40
2022-12-16T07:02:45.293Z,5.20
2022-12-16T07:05:36.131Z,5.90
2022-12-16T07:08:19.888Z,5.50
2022-12-16T07:11:15.681Z,5.70
2022-12-16T07:14:00.973Z,5.80
2022-12-16T07:16:44.683Z,6.10
2022-12-16T07:19:29.392Z,5.60
2022-12-16T07:22:17.261Z,5.60
2022-12-16T07:25:01.112Z,5.40
2022-12-16T07:28:03.076Z,5.20
2022-12-16T07:33:30.698Z,5.20
2022-12-16T07:36:14.550Z,5.10
2022-12-16T07:38:58.490Z,5.30
2022-12-16T07:44:25.686Z,4.90
2022-12-16T07:47:09.208Z,4.70
2022-12-16T07:49:52.672Z,5.20
2022-12-16T07:52:39.571Z,5.40
2022-12-16T07:55:23.540Z,5.60
2022-12-16T07:58:07.594Z,5.60
2022-12-16T08:00:51.813Z,5.80
2022-12-16T08:03:35.903Z,5.80
2022-12-16T08:06:20.401Z,4.80
2022-12-16T08:11:47.807Z,5.00
2022-12-16T08:14:30.503Z,5.20
2022-12-16T08:17:14.170Z,5.00
2022-12-16T08:19:57.891Z,5.10
2022-12-16T08:22:41.515Z,5.00
2022-12-16T08:25:25.048Z,5.10
2022-12-16T08:28:12.472Z,5.50
2022-12-16T08:30:56.571Z,5.20
2022-12-16T08:33:40.396Z,6.10
2022-12-16T08:36:23.415Z,5.10
2022-12-16T08:39:07.072Z,5.30
2022-12-16T08:41:49.584Z,5.70
2022-12-16T08:44:33.167Z,5.50
2022-12-16T08:47:16.811Z,5.70
2022-12-16T08:50:02.159Z,5.30
2022-12-16T08:52:46.757Z,5.30
2022-12-16T08:55:30.043Z,5.30
2022-12-16T08:58:18.650Z,5.80
2022-12-16T09:01:06.652Z,5.40
2022-12-16T09:03:54.264Z,5.20
2022-12-16T09:06:40.759Z,5.00
2022-12-16T09:09:26.003Z,4.70
2022-12-16T09:12:08.564Z,5.30
2022-12-16T09:14:52.234Z,5.40
2022-12-16T09:17:35.866Z,5.50
2022-12-16T09:20:19.828Z,5.10
2022-12-16T09:23:02.469Z,5.30
2022-12-16T09:25:46.180Z,5.30
2022-12-16T09:28:29.798Z,4.90
2022-12-16T09:31:14.397Z,4.90
2022-12-16T09:33:58.024Z,5.00
2022-12-16T09:36:41.739Z,4.90
2022-12-16T09:39:25.383Z,4.90
2022-12-16T09:42:18.388Z,4.80
2022-12-16T09:45:14.593Z,4.80
2022-12-16T09:48:12.588Z,4.70
2022-12-16T09:50:58.931Z,5.00
2022-12-16T09:53:47.932Z,5.10
2022-12-16T09:56:41.800Z,5.00
2022-12-16T09:59:31.219Z,5.30
2022-12-16T10:02:15.433Z,5.10
2022-12-16T10:05:06.872Z,5.30
2022-12-16T10:07:54.278Z,5.60
2022-12-16T10:10:50.647Z,5.80
2022-12-16T10:13:58.780Z,5.90
2022-12-16T10:16:58.302Z,5.30
2022-12-16T10:19:47.832Z,5.00
2022-12-16T10:22:52.716Z,5.10
2022-12-16T10:25:43.793Z,5.40
2022-12-16T10:28:38.519Z,5.40
2022-12-16T10:31:33.393Z,4.90
2022-12-16T10:34:19.135Z,5.10
2022-12-16T10:37:10.956Z,5.10
2022-12-16T10:40:00.848Z,5.00
2022-12-16T10:42:46.666Z,4.80
2022-12-16T10:45:47.646Z,4.80
2022-12-16T10:48:42.312Z,4.80
2022-12-16T10:51:34.123Z,5.00
2022-12-16T10:54:33.832Z,5.10
2022-12-16T10:57:49.042Z,4.90
2022-12-16T11:03:39.024Z,4.80
2022-12-16T11:06:33.088Z,4.80
2022-12-16T11:09:38.644Z,4.70
2022-12-16T11:12:40.709Z,4.70
2022-12-16T11:15:45.783Z,4.90
2022-12-16T11:18:35.422Z,4.70
2022-12-16T11:21:37.192Z,5.00
2022-12-16T11:24:27.520Z,4.80
2022-12-16T11:27:27.814Z,5.10
2022-12-16T11:30:15.333Z,5.00
2022-12-16T11:33:15.840Z,4.90
2022-12-16T11:36:11.602Z,4.70
2022-12-16T11:39:04.170Z,4.70
2022-12-16T11:41:54.796Z,4.90
2022-12-16T11:44:51.426Z,4.60
2022-12-16T11:48:06.983Z,4.70
2022-12-16T11:50:54.202Z,4.70
2022-12-16T11:53:59.908Z,5.20
2022-12-16T11:56:48.620Z,5.00
2022-12-16T11:59:40.281Z,5.30
2022-12-16T12:02:42.762Z,4.80
2022-12-16T12:05:30.017Z,4.70
2022-12-16T12:08:24.608Z,5.00
2022-12-16T12:14:43.095Z,4.80
2022-12-16T12:17:45.584Z,4.60
2022-12-16T12:20:48.676Z,4.80
2022-12-16T12:23:44.413Z,4.50
2022-12-16T12:26:29.558Z,4.80
2022-12-16T12:29:15.418Z,4.80
2022-12-16T12:32:01.541Z,5.10
2022-12-16T12:34:54.146Z,4.90
2022-12-16T12:37:44.308Z,5.10
2022-12-16T12:40:59.875Z,5.20
2022-12-16T12:44:14.357Z,4.70
2022-12-16T12:47:16.776Z,5.00
2022-12-16T12:50:23.525Z,4.90
2022-12-16T12:53:26.095Z,4.60
2022-12-16T12:56:35.467Z,4.50
2022-12-16T12:59:40.720Z,4.60
2022-12-16T13:02:35.462Z,4.60
2022-12-16T13:05:24.343Z,4.60
2022-12-16T13:08:08.195Z,4.60
2022-12-16T13:10:54.108Z,5.10
2022-12-16T13:13:46.716Z,4.70
2022-12-16T13:17:05.357Z,5.00
2022-12-16T13:19:51.560Z,4.60
2022-12-16T13:22:52.211Z,4.70
2022-12-16T13:26:08.660Z,4.70
2022-12-16T13:28:55.601Z,4.70
2022-12-16T13:31:39.539Z,4.60
2022-12-16T13:34:39.594Z,4.80
2022-12-16T13:37:36.419Z,4.60
2022-12-16T13:40:34.406Z,4.60
2022-12-16T13:43:23.293Z,4.50
2022-12-16T13:46:13.648Z,4.70
2022-12-16T13:48:58.475Z,5.00
2022-12-16T13:51:58.026Z,4.90
2022-12-16T13:54:50.701Z,5.20
2022-12-16T13:57:37.080Z,5.20
2022-12-16T14:00:36.470Z,5.60
2022-12-16T14:03:27.804Z,6.00
2022-12-16T14:06:11.753Z,5.20
2022-12-16T14:08:55.930Z,5.10
2022-12-16T14:14:37.411Z,5.70
2022-12-16T14:17:31.096Z,5.60
2022-12-16T14:20:26.878Z,5.80
2022-12-16T14:23:55.948Z,6.30
2022-12-16T14:26:40.468Z,5.10
2022-12-16T14:29:47.350Z,4.60
2022-12-16T14:32:37.764Z,4.60
2022-12-16T14:35:30.314Z,4.70
2022-12-16T14:38:14.561Z,4.70
2022-12-16T14:43:42.449Z,5.10
2022-12-16T14:46:49.327Z,4.30
2022-12-16T14:49:40.023Z,4.70
2022-12-16T14:52:40.863Z,4.70
2022-12-16T14:55:30.968Z,5.00
2022-12-16T14:58:34.969Z,4.80
2022-12-16T15:01:28.854Z,4.80
2022-12-16T15:04:13.753Z,5.00
2022-12-16T15:07:00.421Z,4.40
2022-12-16T15:09:53.606Z,4.70
2022-12-16T15:12:43.664Z,4.30
2022-12-16T15:15:35.707Z,4.60
2022-12-16T15:18:19.848Z,4.50
2022-12-16T15:23:56.157Z,4.50
2022-12-16T15:26:42.456Z,4.50
2022-12-16T15:29:43.292Z,4.70
2022-12-16T15:32:42.898Z,4.50
2022-12-16T15:35:49.185Z,4.70
2022-12-16T15:38:52.959Z,5.00
2022-12-16T15:41:42.649Z,4.90
2022-12-16T15:44:44.133Z,4.80
2022-12-16T15:47:50.589Z,4.80
2022-12-16T15:50:40.876Z,4.90
2022-12-16T15:53:54.747Z,5.30
2022-12-16T15:56:41.560Z,5.20
2022-12-16T15:59:47.512Z,5.20
2022-12-16T16:05:17.339Z,5.00
2022-12-16T16:08:04.337Z,5.00
2022-12-16T16:10:56.787Z,5.10
2022-12-16T16:13:40.272Z,5.00
2022-12-16T16:16:26.840Z,5.20
2022-12-16T16:19:10.483Z,4.80
2022-12-16T16:21:54.020Z,4.90
2022-12-16T16:24:37.550Z,4.80
2022-12-16T16:27:25.984Z,4.90
2022-12-16T16:30:09.559Z,5.60
2022-12-16T16:32:53.064Z,5.20
2022-12-16T16:35:35.616Z,5.10
2022-12-16T16:38:19.226Z,5.40
2022-12-16T16:41:03.284Z,4.80
2022-12-16T16:43:47.103Z,5.60
2022-12-16T16:46:36.734Z,5.10
2022-12-16T16:49:27.081Z,5.10
2022-12-16T16:52:10.639Z,5.20
2022-12-16T16:54:54.963Z,4.80
2022-12-16T16:57:39.119Z,5.00
2022-12-16T17:03:07.453Z,5.20
2022-12-16T17:05:52.383Z,5.00
2022-12-16T17:08:35.960Z,5.00
2022-12-16T17:11:19.687Z,4.90
2022-12-16T17:14:03.327Z,5.10
2022-12-16T17:16:46.985Z,4.90
2022-12-16T17:19:30.616Z,4.80
2022-12-16T17:22:14.227Z,5.20
2022-12-16T17:24:57.789Z,5.10
2022-12-16T17:27:41.834Z,4.60
2022-12-16T17:30:32.628Z,4.80
2022-12-16T17:33:16.277Z,4.90
2022-12-16T17:35:59.892Z,5.00
2022-12-16T17:38:43.499Z,5.10
2022-12-16T17:41:27.035Z,5.00
2022-12-16T17:44:10.581Z,4.90
2022-12-16T17:46:54.303Z,5.00
2022-12-16T17:49:38.386Z,5.10
2022-12-16T17:52:21.919Z,5.10
2022-12-16T17:55:05.431Z,5.40
2022-12-16T17:57:49.506Z,4.80
2022-12-16T18:00:33.635Z,5.00
2022-12-16T18:03:17.787Z,5.00
2022-12-16T18:06:01.642Z,5.30
2022-12-16T18:08:46.493Z,4.90
2022-12-16T18:11:31.801Z,4.90
2022-12-16T18:14:18.275Z,4.90
2022-12-16T18:17:01.810Z,5.00
2022-12-16T18:19:45.357Z,5.20
2022-12-16T18:22:31.557Z,5.00
2022-12-16T18:25:15.491Z,4.80
2022-12-16T18:28:00.161Z,5.10
2022-12-16T18:30:43.694Z,5.00
2022-12-16T18:33:27.349Z,5.00
2022-12-16T18:36:11.067Z,4.70
2022-12-16T18:38:54.596Z,5.30
2022-12-16T18:41:38.640Z,4.90
2022-12-16T18:44:24.839Z,5.00
2022-12-16T18:47:08.387Z,5.10
2022-12-16T18:49:51.943Z,5.10
2022-12-16T18:52:36.353Z,5.10
2022-12-16T18:55:21.042Z,5.00
2022-12-16T18:58:27.504Z,5.10
2022-12-16T19:01:21.715Z,5.10
2022-12-16T19:04:06.056Z,5.30
2022-12-16T19:06:49.610Z,5.00
2022-12-16T19:09:33.124Z,5.20
2022-12-16T19:12:16.638Z,5.20
2022-12-16T19:15:00.189Z,5.10
2022-12-16T19:17:43.820Z,4.80
2022-12-16T19:20:32.933Z,5.00
2022-12-16T19:23:16.970Z,5.10
2022-12-16T19:26:00.589Z,4.70
2022-12-16T19:28:44.265Z,5.20
2022-12-16T19:34:30.358Z,4.80
2022-12-16T19:37:13.970Z,5.60
2022-12-16T19:39:57.506Z,5.30
2022-12-16T19:42:41.053Z,5.20
2022-12-16T19:45:25.598Z,5.00
2022-12-16T19:48:15.600Z,5.10
2022-12-16T19:50:59.127Z,5.10
2022-12-16T19:53:42.686Z,5.50
2022-12-16T19:56:26.312Z,5.40
2022-12-16T19:59:09.841Z,5.40
2022-12-16T20:01:53.465Z,5.20
2022-12-16T20:04:38.633Z,5.30
2022-12-16T20:10:25.708Z,4.70
2022-12-16T20:13:09.324Z,5.60
2022-12-16T20:15:53.013Z,5.30
2022-12-16T20:18:39.850Z,5.10
2022-12-16T20:21:22.399Z,5.30
2022-12-16T20:24:06.030Z,5.00
2022-12-16T20:26:49.662Z,5.20
2022-12-16T20:29:33.313Z,5.00
2022-12-16T20:32:16.930Z,5.50
2022-12-16T20:35:01.698Z,5.10
2022-12-16T20:37:45.330Z,4.80
2022-12-16T20:40:29.167Z,5.20
2022-12-16T20:43:12.743Z,5.20
2022-12-16T20:45:57.402Z,5.50
2022-12-16T20:48:41.243Z,5.40
2022-12-16T20:51:27.035Z,5.30
2022-12-16T20:54:10.402Z,5.20
2022-12-16T20:56:53.988Z,5.10
2022-12-16T20:59:39.574Z,5.30
2022-12-16T21:02:33.015Z,5.10
2022-12-16T21:05:19.337Z,5.50
2022-12-16T21:08:02.985Z,5.30
2022-12-16T21:10:46.616Z,5.40
2022-12-16T21:13:33.032Z,5.00
2022-12-16T21:14:28.642Z,5.10
2022-12-16T21:16:20.519Z,5.50
2022-12-16T21:19:04.089Z,5.40
2022-12-16T21:21:47.716Z,5.00
2022-12-16T21:24:31.869Z,5.60
2022-12-16T21:30:00.170Z,5.30
2022-12-16T21:32:44.587Z,5.10
2022-12-16T21:35:28.237Z,5.20
2022-12-16T21:38:11.996Z,5.20
2022-12-16T21:40:56.080Z,5.50
2022-12-16T21:43:40.366Z,5.10
2022-12-16T21:46:24.803Z,5.10
2022-12-16T21:51:53.036Z,5.50
2022-12-16T21:54:40.206Z,5.00
2022-12-16T21:57:23.927Z,5.10
2022-12-16T22:00:07.555Z,5.30
2022-12-16T22:02:55.273Z,4.90
2022-12-16T22:05:39.955Z,5.20
2022-12-16T22:08:26.038Z,5.60
2022-12-16T22:11:16.797Z,4.90
2022-12-16T22:14:01.402Z,5.10
2022-12-16T22:16:44.965Z,4.70
2022-12-16T22:19:28.696Z,5.30
2022-12-16T22:22:12.318Z,5.40
2022-12-16T22:24:56.840Z,5.30
2022-12-16T22:27:39.488Z,5.50
2022-12-16T22:30:24.767Z,5.40
2022-12-16T22:33:08.308Z,5.40
2022-12-16T22:35:52.555Z,4.80
2022-12-16T22:38:36.213Z,4.90
2022-12-16T22:41:19.982Z,5.20
2022-12-16T22:44:03.582Z,5.00
2022-12-16T22:46:46.585Z,4.90
2022-12-16T22:49:30.961Z,5.20
2022-12-16T22:54:59.307Z,5.10
2022-12-16T22:57:44.633Z,5.40
2022-12-16T23:00:28.480Z,5.30
2022-12-16T23:03:13.644Z,5.10
2022-12-16T23:05:57.285Z,5.10
2022-12-16T23:08:40.801Z,4.60
2022-12-16T23:11:37.985Z,5.20
2022-12-16T23:14:21.605Z,5.40
2022-12-16T23:17:05.361Z,5.40
2022-12-16T23:19:59.342Z,5.40
2022-12-16T23:22:42.956Z,5.20
2022-12-16T23:25:25.615Z,5.00
2022-12-16T23:28:09.221Z,5.30
2022-12-16T23:33:37.722Z,5.30
2022-12-16T23:36:21.859Z,5.20
2022-12-16T23:39:05.387Z,4.60
2022-12-16T23:41:48.957Z,5.60
2022-12-16T23:44:32.568Z,5.20
2022-12-16T23:47:16.121Z,4.90
2022-12-16T23:49:59.656Z,5.00
2022-12-16T23:52:43.139Z,5.40
2022-12-16T23:55:26.729Z,5.40
2022-12-16T23:58:14.880Z,5.30
